sensor_id;sensor_type;location;lat;lon;timestamp;noise_LAeq;noise_LA_min;noise_LA_max;noise_LA01;noise_LA95
71805;Laerm;59654;52.216;5.616;2023-11-21T00:00:22;43.25;34.95;58.37;;
71805;Laerm;59654;52.216;5.616;2023-11-21T00:00:53;43.00;35.73;58.03;;
71805;Laerm;59654;52.216;5.616;2023-11-21T00:01:24;43.98;36.60;58.30;;
71805;Laerm;59654;52.216;5.616;2023-11-21T00:01:55;44.42;35.67;58.35;;
71805;Laerm;59654;52.216;5.616;2023-11-21T00:02:27;43.66;34.61;57.85;;
71805;Laerm;59654;52.216;5.616;2023-11-21T00:02:58;43.48;34.85;57.89;;
71805;Laerm;59654;52.216;5.616;2023-11-21T00:03:32;44.00;34.17;59.70;;
71805;Laerm;59654;52.216;5.616;2023-11-21T00:04:03;44.23;33.57;57.81;;
71805;Laerm;59654;52.216;5.616;2023-11-21T00:04:34;43.04;33.85;57.86;;
71805;Laerm;59654;52.216;5.616;2023-11-21T00:05:10;43.28;33.41;60.54;;
71805;Laerm;59654;52.216;5.616;2023-11-21T00:05:41;42.97;33.55;57.87;;
71805;Laerm;59654;52.216;5.616;2023-11-21T00:06:12;43.51;33.99;57.97;;
71805;Laerm;59654;52.216;5.616;2023-11-21T00:06:43;43.57;34.51;57.83;;
71805;Laerm;59654;52.216;5.616;2023-11-21T00:07:17;42.80;34.09;57.91;;
71805;Laerm;59654;52.216;5.616;2023-11-21T00:07:48;44.24;34.82;59.41;;
71805;Laerm;59654;52.216;5.616;2023-11-21T00:08:19;43.69;34.81;61.55;;
71805;Laerm;59654;52.216;5.616;2023-11-21T00:08:50;43.03;33.59;57.90;;
71805;Laerm;59654;52.216;5.616;2023-11-21T00:09:20;43.26;33.62;58.73;;
71805;Laerm;59654;52.216;5.616;2023-11-21T00:09:52;43.34;33.56;60.54;;
71805;Laerm;59654;52.216;5.616;2023-11-21T00:10:23;42.37;33.67;57.88;;
71805;Laerm;59654;52.216;5.616;2023-11-21T00:10:53;42.11;34.20;57.87;;
71805;Laerm;59654;52.216;5.616;2023-11-21T00:11:25;44.13;34.68;57.86;;
71805;Laerm;59654;52.216;5.616;2023-11-21T00:11:56;45.99;37.48;58.26;;
71805;Laerm;59654;52.216;5.616;2023-11-21T00:12:27;43.50;36.21;57.90;;
71805;Laerm;59654;52.216;5.616;2023-11-21T00:13:00;42.81;34.36;57.88;;
71805;Laerm;59654;52.216;5.616;2023-11-21T00:13:32;43.19;34.45;60.27;;
71805;Laerm;59654;52.216;5.616;2023-11-21T00:14:04;44.10;36.93;60.56;;
71805;Laerm;59654;52.216;5.616;2023-11-21T00:14:34;45.31;36.52;57.93;;
71805;Laerm;59654;52.216;5.616;2023-11-21T00:15:06;42.71;34.42;57.84;;
71805;Laerm;59654;52.216;5.616;2023-11-21T00:15:40;42.99;33.81;57.82;;
71805;Laerm;59654;52.216;5.616;2023-11-21T00:16:11;42.81;34.01;60.66;;
71805;Laerm;59654;52.216;5.616;2023-11-21T00:16:41;43.03;33.94;57.79;;
71805;Laerm;59654;52.216;5.616;2023-11-21T00:17:12;42.72;33.36;57.81;;
71805;Laerm;59654;52.216;5.616;2023-11-21T00:17:43;42.55;33.18;60.59;;
71805;Laerm;59654;52.216;5.616;2023-11-21T00:18:14;42.22;33.45;57.85;;
71805;Laerm;59654;52.216;5.616;2023-11-21T00:18:45;42.76;33.42;57.84;;
71805;Laerm;59654;52.216;5.616;2023-11-21T00:19:17;42.73;32.67;57.88;;
71805;Laerm;59654;52.216;5.616;2023-11-21T00:19:47;43.44;33.41;57.97;;
71805;Laerm;59654;52.216;5.616;2023-11-21T00:20:18;43.25;33.21;61.27;;
71805;Laerm;59654;52.216;5.616;2023-11-21T00:20:49;43.71;33.21;61.22;;
71805;Laerm;59654;52.216;5.616;2023-11-21T00:21:20;43.66;33.73;58.01;;
71805;Laerm;59654;52.216;5.616;2023-11-21T00:21:51;42.90;33.21;61.24;;
71805;Laerm;59654;52.216;5.616;2023-11-21T00:22:22;42.16;33.78;57.83;;
71805;Laerm;59654;52.216;5.616;2023-11-21T00:22:52;43.14;33.82;57.93;;
71805;Laerm;59654;52.216;5.616;2023-11-21T00:23:23;43.51;33.45;57.84;;
71805;Laerm;59654;52.216;5.616;2023-11-21T00:23:54;42.98;33.74;58.05;;
71805;Laerm;59654;52.216;5.616;2023-11-21T00:24:25;42.44;34.00;57.86;;
71805;Laerm;59654;52.216;5.616;2023-11-21T00:24:56;42.34;34.40;57.87;;
71805;Laerm;59654;52.216;5.616;2023-11-21T00:25:27;43.20;35.13;61.69;;
71805;Laerm;59654;52.216;5.616;2023-11-21T00:25:58;44.36;35.49;60.64;;
71805;Laerm;59654;52.216;5.616;2023-11-21T00:26:29;43.14;35.68;57.84;;
71805;Laerm;59654;52.216;5.616;2023-11-21T00:27:06;43.26;35.43;57.87;;
71805;Laerm;59654;52.216;5.616;2023-11-21T00:27:37;42.40;34.62;57.82;;
71805;Laerm;59654;52.216;5.616;2023-11-21T00:28:07;42.18;34.49;57.81;;
71805;Laerm;59654;52.216;5.616;2023-11-21T00:28:38;42.49;34.49;57.76;;
71805;Laerm;59654;52.216;5.616;2023-11-21T00:29:09;43.58;34.71;57.82;;
71805;Laerm;59654;52.216;5.616;2023-11-21T00:29:41;43.86;34.51;57.85;;
71805;Laerm;59654;52.216;5.616;2023-11-21T00:30:12;43.07;34.80;57.78;;
71805;Laerm;59654;52.216;5.616;2023-11-21T00:30:43;43.54;34.41;60.10;;
71805;Laerm;59654;52.216;5.616;2023-11-21T00:31:15;43.54;35.06;57.81;;
71805;Laerm;59654;52.216;5.616;2023-11-21T00:31:46;43.62;35.05;60.54;;
71805;Laerm;59654;52.216;5.616;2023-11-21T00:32:17;42.75;35.07;60.14;;
71805;Laerm;59654;52.216;5.616;2023-11-21T00:32:48;42.00;34.99;57.78;;
71805;Laerm;59654;52.216;5.616;2023-11-21T00:33:18;41.47;34.67;57.78;;
71805;Laerm;59654;52.216;5.616;2023-11-21T00:33:50;43.51;34.47;61.32;;
71805;Laerm;59654;52.216;5.616;2023-11-21T00:34:21;43.42;35.14;61.58;;
71805;Laerm;59654;52.216;5.616;2023-11-21T00:34:51;42.31;34.47;57.73;;
71805;Laerm;59654;52.216;5.616;2023-11-21T00:35:22;42.83;34.44;58.89;;
71805;Laerm;59654;52.216;5.616;2023-11-21T00:35:53;42.69;34.53;57.74;;
71805;Laerm;59654;52.216;5.616;2023-11-21T00:36:24;43.01;34.42;57.74;;
71805;Laerm;59654;52.216;5.616;2023-11-21T00:36:56;43.32;34.86;57.84;;
71805;Laerm;59654;52.216;5.616;2023-11-21T00:37:27;43.54;35.16;57.74;;
71805;Laerm;59654;52.216;5.616;2023-11-21T00:37:58;44.35;35.55;57.76;;
71805;Laerm;59654;52.216;5.616;2023-11-21T00:38:29;43.63;35.82;57.76;;
71805;Laerm;59654;52.216;5.616;2023-11-21T00:39:02;43.05;35.96;57.75;;
71805;Laerm;59654;52.216;5.616;2023-11-21T00:39:34;43.33;35.40;60.24;;
71805;Laerm;59654;52.216;5.616;2023-11-21T00:40:06;41.71;33.25;57.74;;
71805;Laerm;59654;52.216;5.616;2023-11-21T00:40:39;43.57;33.54;60.57;;
71805;Laerm;59654;52.216;5.616;2023-11-21T00:41:09;42.70;33.47;57.78;;
71805;Laerm;59654;52.216;5.616;2023-11-21T00:41:40;42.50;33.28;57.80;;
71805;Laerm;59654;52.216;5.616;2023-11-21T00:42:12;43.65;33.24;57.80;;
71805;Laerm;59654;52.216;5.616;2023-11-21T00:42:43;42.75;33.00;57.83;;
71805;Laerm;59654;52.216;5.616;2023-11-21T00:43:14;42.32;32.76;57.89;;
71805;Laerm;59654;52.216;5.616;2023-11-21T00:43:45;43.80;33.22;60.51;;
71805;Laerm;59654;52.216;5.616;2023-11-21T00:44:16;42.41;32.78;57.84;;
71805;Laerm;59654;52.216;5.616;2023-11-21T00:44:47;43.69;33.75;62.08;;
71805;Laerm;59654;52.216;5.616;2023-11-21T00:45:18;43.15;33.52;61.03;;
71805;Laerm;59654;52.216;5.616;2023-11-21T00:45:49;41.91;33.76;57.84;;
71805;Laerm;59654;52.216;5.616;2023-11-21T00:46:19;43.72;33.64;61.78;;
71805;Laerm;59654;52.216;5.616;2023-11-21T00:46:50;43.55;33.86;61.79;;
71805;Laerm;59654;52.216;5.616;2023-11-21T00:47:21;43.67;33.48;57.85;;
71805;Laerm;59654;52.216;5.616;2023-11-21T00:47:53;42.40;33.25;59.06;;
71805;Laerm;59654;52.216;5.616;2023-11-21T00:48:24;42.47;33.39;58.69;;
71805;Laerm;59654;52.216;5.616;2023-11-21T00:48:55;41.27;33.26;58.13;;
71805;Laerm;59654;52.216;5.616;2023-11-21T00:49:26;43.38;33.27;57.85;;
71805;Laerm;59654;52.216;5.616;2023-11-21T00:49:58;41.44;33.19;57.86;;
71805;Laerm;59654;52.216;5.616;2023-11-21T00:50:30;42.62;33.42;57.80;;
71805;Laerm;59654;52.216;5.616;2023-11-21T00:51:01;40.99;33.30;57.79;;
71805;Laerm;59654;52.216;5.616;2023-11-21T00:51:32;43.43;33.14;58.19;;
71805;Laerm;59654;52.216;5.616;2023-11-21T00:52:04;44.70;33.53;57.98;;
71805;Laerm;59654;52.216;5.616;2023-11-21T00:52:36;43.60;34.05;58.33;;
71805;Laerm;59654;52.216;5.616;2023-11-21T00:53:06;42.06;34.25;57.95;;
71805;Laerm;59654;52.216;5.616;2023-11-21T00:53:39;41.89;33.63;57.70;;
71805;Laerm;59654;52.216;5.616;2023-11-21T00:54:10;42.54;33.25;57.73;;
71805;Laerm;59654;52.216;5.616;2023-11-21T00:54:41;44.19;35.71;57.77;;
71805;Laerm;59654;52.216;5.616;2023-11-21T00:55:13;43.93;35.38;57.81;;
71805;Laerm;59654;52.216;5.616;2023-11-21T00:55:44;42.90;33.61;57.73;;
71805;Laerm;59654;52.216;5.616;2023-11-21T00:56:16;41.87;34.56;57.76;;
71805;Laerm;59654;52.216;5.616;2023-11-21T00:56:46;42.59;33.72;57.84;;
71805;Laerm;59654;52.216;5.616;2023-11-21T00:57:18;43.72;33.41;58.99;;
71805;Laerm;59654;52.216;5.616;2023-11-21T00:57:49;43.96;33.20;61.64;;
71805;Laerm;59654;52.216;5.616;2023-11-21T00:58:20;43.18;33.52;57.72;;
71805;Laerm;59654;52.216;5.616;2023-11-21T00:58:51;42.99;33.37;59.00;;
71805;Laerm;59654;52.216;5.616;2023-11-21T00:59:23;43.10;33.25;58.87;;
71805;Laerm;59654;52.216;5.616;2023-11-21T00:59:54;42.33;33.42;57.67;;
71805;Laerm;59654;52.216;5.616;2023-11-21T01:00:25;42.88;33.07;57.73;;
71805;Laerm;59654;52.216;5.616;2023-11-21T01:00:56;41.28;33.35;57.82;;
71805;Laerm;59654;52.216;5.616;2023-11-21T01:01:27;43.75;35.89;57.74;;
71805;Laerm;59654;52.216;5.616;2023-11-21T01:01:58;41.68;34.05;57.69;;
71805;Laerm;59654;52.216;5.616;2023-11-21T01:02:31;42.93;33.62;60.56;;
71805;Laerm;59654;52.216;5.616;2023-11-21T01:03:01;42.58;33.99;57.69;;
71805;Laerm;59654;52.216;5.616;2023-11-21T01:03:33;43.03;33.59;61.33;;
71805;Laerm;59654;52.216;5.616;2023-11-21T01:04:04;43.58;34.12;58.18;;
71805;Laerm;59654;52.216;5.616;2023-11-21T01:04:36;43.69;33.28;57.68;;
71805;Laerm;59654;52.216;5.616;2023-11-21T01:05:07;42.65;33.35;57.84;;
71805;Laerm;59654;52.216;5.616;2023-11-21T01:05:38;42.31;33.43;58.62;;
71805;Laerm;59654;52.216;5.616;2023-11-21T01:06:09;42.22;33.06;57.67;;
71805;Laerm;59654;52.216;5.616;2023-11-21T01:06:40;43.69;33.18;60.45;;
71805;Laerm;59654;52.216;5.616;2023-11-21T01:07:13;42.85;32.87;57.94;;
71805;Laerm;59654;52.216;5.616;2023-11-21T01:07:44;44.09;33.42;57.68;;
71805;Laerm;59654;52.216;5.616;2023-11-21T01:08:15;43.24;32.58;57.82;;
71805;Laerm;59654;52.216;5.616;2023-11-21T01:08:46;42.20;33.16;57.77;;
71805;Laerm;59654;52.216;5.616;2023-11-21T01:09:17;41.88;33.45;57.71;;
71805;Laerm;59654;52.216;5.616;2023-11-21T01:09:50;41.26;33.64;58.18;;
71805;Laerm;59654;52.216;5.616;2023-11-21T01:10:20;43.88;33.78;57.70;;
71805;Laerm;59654;52.216;5.616;2023-11-21T01:10:51;41.93;33.76;57.68;;
71805;Laerm;59654;52.216;5.616;2023-11-21T01:11:22;42.82;33.28;57.71;;
71805;Laerm;59654;52.216;5.616;2023-11-21T01:11:53;42.14;33.40;57.72;;
71805;Laerm;59654;52.216;5.616;2023-11-21T01:12:24;42.48;33.15;57.76;;
71805;Laerm;59654;52.216;5.616;2023-11-21T01:12:55;43.78;33.62;57.80;;
71805;Laerm;59654;52.216;5.616;2023-11-21T01:13:26;42.90;33.26;60.68;;
71805;Laerm;59654;52.216;5.616;2023-11-21T01:13:58;43.35;33.54;58.04;;
71805;Laerm;59654;52.216;5.616;2023-11-21T01:14:30;43.56;33.85;57.78;;
71805;Laerm;59654;52.216;5.616;2023-11-21T01:15:01;42.80;33.91;57.82;;
71805;Laerm;59654;52.216;5.616;2023-11-21T01:15:34;42.82;33.51;58.28;;
71805;Laerm;59654;52.216;5.616;2023-11-21T01:16:05;43.17;33.49;57.81;;
71805;Laerm;59654;52.216;5.616;2023-11-21T01:16:37;42.64;34.52;57.85;;
71805;Laerm;59654;52.216;5.616;2023-11-21T01:17:08;43.73;34.91;57.81;;
71805;Laerm;59654;52.216;5.616;2023-11-21T01:17:39;41.20;33.33;57.77;;
71805;Laerm;59654;52.216;5.616;2023-11-21T01:18:11;43.58;33.63;57.78;;
71805;Laerm;59654;52.216;5.616;2023-11-21T01:18:42;44.41;33.61;58.50;;
71805;Laerm;59654;52.216;5.616;2023-11-21T01:19:13;41.93;33.62;57.78;;
71805;Laerm;59654;52.216;5.616;2023-11-21T01:19:43;42.96;33.92;60.37;;
71805;Laerm;59654;52.216;5.616;2023-11-21T01:20:14;43.06;33.94;57.73;;
71805;Laerm;59654;52.216;5.616;2023-11-21T01:20:45;41.54;33.93;58.34;;
71805;Laerm;59654;52.216;5.616;2023-11-21T01:21:17;43.05;33.87;57.75;;
71805;Laerm;59654;52.216;5.616;2023-11-21T01:21:48;43.71;33.30;57.83;;
71805;Laerm;59654;52.216;5.616;2023-11-21T01:22:19;42.69;34.31;57.75;;
71805;Laerm;59654;52.216;5.616;2023-11-21T01:22:56;42.87;33.57;57.72;;
71805;Laerm;59654;52.216;5.616;2023-11-21T01:23:27;43.23;33.64;57.74;;
71805;Laerm;59654;52.216;5.616;2023-11-21T01:23:58;43.94;34.17;57.73;;
71805;Laerm;59654;52.216;5.616;2023-11-21T01:24:28;41.91;34.50;57.75;;
71805;Laerm;59654;52.216;5.616;2023-11-21T01:24:59;42.78;33.84;60.35;;
71805;Laerm;59654;52.216;5.616;2023-11-21T01:25:30;42.57;33.87;57.72;;
71805;Laerm;59654;52.216;5.616;2023-11-21T01:26:01;43.27;33.96;57.80;;
71805;Laerm;59654;52.216;5.616;2023-11-21T01:26:33;42.83;34.23;57.70;;
71805;Laerm;59654;52.216;5.616;2023-11-21T01:27:04;43.01;33.91;60.10;;
71805;Laerm;59654;52.216;5.616;2023-11-21T01:27:35;42.50;33.75;57.67;;
71805;Laerm;59654;52.216;5.616;2023-11-21T01:28:06;42.32;33.03;58.10;;
71805;Laerm;59654;52.216;5.616;2023-11-21T01:28:37;43.24;32.97;57.66;;
71805;Laerm;59654;52.216;5.616;2023-11-21T01:29:08;42.21;33.89;60.51;;
71805;Laerm;59654;52.216;5.616;2023-11-21T01:29:39;43.76;33.81;57.74;;
71805;Laerm;59654;52.216;5.616;2023-11-21T01:30:10;42.88;35.40;60.28;;
71805;Laerm;59654;52.216;5.616;2023-11-21T01:30:41;43.56;34.18;57.73;;
71805;Laerm;59654;52.216;5.616;2023-11-21T01:31:12;43.10;33.57;57.74;;
71805;Laerm;59654;52.216;5.616;2023-11-21T01:31:43;42.88;33.38;57.73;;
71805;Laerm;59654;52.216;5.616;2023-11-21T01:32:14;43.18;34.07;57.76;;
71805;Laerm;59654;52.216;5.616;2023-11-21T01:32:45;43.41;34.55;57.73;;
71805;Laerm;59654;52.216;5.616;2023-11-21T01:33:16;42.30;34.12;61.31;;
71805;Laerm;59654;52.216;5.616;2023-11-21T01:33:46;42.13;34.16;60.89;;
71805;Laerm;59654;52.216;5.616;2023-11-21T01:34:17;43.09;33.91;60.26;;
71805;Laerm;59654;52.216;5.616;2023-11-21T01:34:50;42.34;33.25;57.75;;
71805;Laerm;59654;52.216;5.616;2023-11-21T01:35:21;42.98;33.05;57.73;;
71805;Laerm;59654;52.216;5.616;2023-11-21T01:35:52;42.97;32.58;57.75;;
71805;Laerm;59654;52.216;5.616;2023-11-21T01:36:31;41.97;32.97;58.56;;
71805;Laerm;59654;52.216;5.616;2023-11-21T01:37:03;43.26;33.32;57.70;;
71805;Laerm;59654;52.216;5.616;2023-11-21T01:37:37;41.97;33.41;57.70;;
71805;Laerm;59654;52.216;5.616;2023-11-21T01:38:08;43.03;33.27;60.43;;
71805;Laerm;59654;52.216;5.616;2023-11-21T01:38:39;40.99;33.05;57.68;;
71805;Laerm;59654;52.216;5.616;2023-11-21T01:39:10;42.51;32.91;57.72;;
71805;Laerm;59654;52.216;5.616;2023-11-21T01:39:46;43.16;33.08;57.76;;
71805;Laerm;59654;52.216;5.616;2023-11-21T01:40:17;42.42;34.15;57.74;;
71805;Laerm;59654;52.216;5.616;2023-11-21T01:40:48;42.96;33.85;57.73;;
71805;Laerm;59654;52.216;5.616;2023-11-21T01:41:19;43.42;34.14;57.72;;
71805;Laerm;59654;52.216;5.616;2023-11-21T01:41:51;42.32;33.80;57.77;;
71805;Laerm;59654;52.216;5.616;2023-11-21T01:42:23;43.24;34.19;61.44;;
71805;Laerm;59654;52.216;5.616;2023-11-21T01:42:54;42.93;33.91;60.57;;
71805;Laerm;59654;52.216;5.616;2023-11-21T01:43:24;41.90;34.59;57.82;;
71805;Laerm;59654;52.216;5.616;2023-11-21T01:43:56;42.06;34.36;60.75;;
71805;Laerm;59654;52.216;5.616;2023-11-21T01:44:27;43.04;34.19;57.76;;
71805;Laerm;59654;52.216;5.616;2023-11-21T01:44:58;43.14;33.95;57.73;;
71805;Laerm;59654;52.216;5.616;2023-11-21T01:45:29;42.61;33.56;57.77;;
71805;Laerm;59654;52.216;5.616;2023-11-21T01:46:02;42.95;34.22;57.71;;
71805;Laerm;59654;52.216;5.616;2023-11-21T01:46:33;43.60;34.10;60.72;;
71805;Laerm;59654;52.216;5.616;2023-11-21T01:47:07;42.89;33.73;57.88;;
71805;Laerm;59654;52.216;5.616;2023-11-21T01:47:41;42.74;33.76;57.83;;
71805;Laerm;59654;52.216;5.616;2023-11-21T01:48:13;42.31;34.10;57.79;;
71805;Laerm;59654;52.216;5.616;2023-11-21T01:48:45;42.89;33.52;57.74;;
71805;Laerm;59654;52.216;5.616;2023-11-21T01:49:16;43.54;33.46;57.79;;
71805;Laerm;59654;52.216;5.616;2023-11-21T01:49:48;42.37;34.12;57.80;;
71805;Laerm;59654;52.216;5.616;2023-11-21T01:50:19;42.33;34.45;57.77;;
71805;Laerm;59654;52.216;5.616;2023-11-21T01:50:52;41.43;35.07;57.76;;
71805;Laerm;59654;52.216;5.616;2023-11-21T01:51:23;43.37;34.70;57.80;;
71805;Laerm;59654;52.216;5.616;2023-11-21T01:51:54;42.16;33.58;57.79;;
71805;Laerm;59654;52.216;5.616;2023-11-21T01:52:26;42.16;34.00;59.66;;
71805;Laerm;59654;52.216;5.616;2023-11-21T01:53:00;43.82;34.10;57.74;;
71805;Laerm;59654;52.216;5.616;2023-11-21T01:53:32;43.70;34.59;57.73;;
71805;Laerm;59654;52.216;5.616;2023-11-21T01:54:04;41.71;34.16;57.73;;
71805;Laerm;59654;52.216;5.616;2023-11-21T01:54:35;42.05;33.90;57.68;;
71805;Laerm;59654;52.216;5.616;2023-11-21T01:55:08;43.00;33.30;57.65;;
71805;Laerm;59654;52.216;5.616;2023-11-21T01:55:41;40.99;34.17;57.63;;
71805;Laerm;59654;52.216;5.616;2023-11-21T01:56:13;42.55;34.28;61.09;;
71805;Laerm;59654;52.216;5.616;2023-11-21T01:56:48;42.64;33.77;57.64;;
71805;Laerm;59654;52.216;5.616;2023-11-21T01:57:20;42.76;33.53;57.72;;
71805;Laerm;59654;52.216;5.616;2023-11-21T01:57:51;41.48;33.61;57.61;;
71805;Laerm;59654;52.216;5.616;2023-11-21T01:58:22;42.30;33.65;57.60;;
71805;Laerm;59654;52.216;5.616;2023-11-21T01:58:53;42.57;34.23;57.57;;
71805;Laerm;59654;52.216;5.616;2023-11-21T01:59:26;43.22;33.88;58.60;;
71805;Laerm;59654;52.216;5.616;2023-11-21T01:59:58;41.65;33.48;60.76;;
71805;Laerm;59654;52.216;5.616;2023-11-21T02:00:31;44.26;34.91;61.09;;
71805;Laerm;59654;52.216;5.616;2023-11-21T02:01:04;42.59;34.09;57.70;;
71805;Laerm;59654;52.216;5.616;2023-11-21T02:01:35;43.11;33.30;58.95;;
71805;Laerm;59654;52.216;5.616;2023-11-21T02:02:07;43.08;33.99;57.64;;
71805;Laerm;59654;52.216;5.616;2023-11-21T02:02:39;42.63;34.46;58.95;;
71805;Laerm;59654;52.216;5.616;2023-11-21T02:03:10;42.61;34.11;57.61;;
71805;Laerm;59654;52.216;5.616;2023-11-21T02:03:41;43.37;33.11;58.96;;
71805;Laerm;59654;52.216;5.616;2023-11-21T02:04:13;43.08;33.74;57.61;;
71805;Laerm;59654;52.216;5.616;2023-11-21T02:04:44;43.20;33.71;57.64;;
71805;Laerm;59654;52.216;5.616;2023-11-21T02:05:17;43.10;33.25;57.60;;
71805;Laerm;59654;52.216;5.616;2023-11-21T02:05:55;43.24;33.80;58.05;;
71805;Laerm;59654;52.216;5.616;2023-11-21T02:06:26;43.03;33.58;57.57;;
71805;Laerm;59654;52.216;5.616;2023-11-21T02:06:57;43.43;33.82;60.22;;
71805;Laerm;59654;52.216;5.616;2023-11-21T02:07:28;41.98;33.61;57.55;;
71805;Laerm;59654;52.216;5.616;2023-11-21T02:07:59;43.81;33.91;57.56;;
71805;Laerm;59654;52.216;5.616;2023-11-21T02:08:31;42.19;33.51;57.60;;
71805;Laerm;59654;52.216;5.616;2023-11-21T02:09:02;41.94;33.90;57.57;;
71805;Laerm;59654;52.216;5.616;2023-11-21T02:09:35;41.06;34.43;57.59;;
71805;Laerm;59654;52.216;5.616;2023-11-21T02:10:09;41.94;33.22;57.54;;
71805;Laerm;59654;52.216;5.616;2023-11-21T02:10:40;43.51;34.05;57.68;;
71805;Laerm;59654;52.216;5.616;2023-11-21T02:11:11;42.98;34.16;60.33;;
71805;Laerm;59654;52.216;5.616;2023-11-21T02:11:44;44.06;34.80;60.72;;
71805;Laerm;59654;52.216;5.616;2023-11-21T02:12:15;41.59;33.80;57.53;;
71805;Laerm;59654;52.216;5.616;2023-11-21T02:12:46;42.95;33.73;57.58;;
71805;Laerm;59654;52.216;5.616;2023-11-21T02:13:17;41.76;33.52;57.60;;
71805;Laerm;59654;52.216;5.616;2023-11-21T02:13:48;43.04;33.76;57.72;;
71805;Laerm;59654;52.216;5.616;2023-11-21T02:14:21;44.13;34.62;59.82;;
71805;Laerm;59654;52.216;5.616;2023-11-21T02:14:52;42.41;33.81;60.48;;
71805;Laerm;59654;52.216;5.616;2023-11-21T02:15:23;42.11;33.76;57.56;;
71805;Laerm;59654;52.216;5.616;2023-11-21T02:15:57;40.86;33.32;57.68;;
71805;Laerm;59654;52.216;5.616;2023-11-21T02:16:28;43.28;34.11;61.03;;
71805;Laerm;59654;52.216;5.616;2023-11-21T02:17:02;42.81;33.65;57.63;;
71805;Laerm;59654;52.216;5.616;2023-11-21T02:17:36;41.97;34.02;57.57;;
71805;Laerm;59654;52.216;5.616;2023-11-21T02:18:07;42.30;33.91;57.58;;
71805;Laerm;59654;52.216;5.616;2023-11-21T02:18:40;43.27;34.69;57.58;;
71805;Laerm;59654;52.216;5.616;2023-11-21T02:19:18;44.86;35.37;61.08;;
71805;Laerm;59654;52.216;5.616;2023-11-21T02:20:00;41.77;33.48;60.95;;
71805;Laerm;59654;52.216;5.616;2023-11-21T02:20:32;42.27;34.17;58.89;;
71805;Laerm;59654;52.216;5.616;2023-11-21T02:21:05;41.91;34.06;57.72;;
71805;Laerm;59654;52.216;5.616;2023-11-21T02:21:36;43.51;34.69;57.79;;
71805;Laerm;59654;52.216;5.616;2023-11-21T02:22:12;43.66;34.35;61.90;;
71805;Laerm;59654;52.216;5.616;2023-11-21T02:23:03;42.55;34.13;58.09;;
71805;Laerm;59654;52.216;5.616;2023-11-21T02:23:35;43.05;33.52;60.26;;
71805;Laerm;59654;52.216;5.616;2023-11-21T02:24:08;43.11;33.51;59.49;;
71805;Laerm;59654;52.216;5.616;2023-11-21T02:24:41;41.47;34.27;57.58;;
71805;Laerm;59654;52.216;5.616;2023-11-21T02:25:13;43.04;34.01;57.58;;
71805;Laerm;59654;52.216;5.616;2023-11-21T02:25:44;42.34;33.34;60.31;;
71805;Laerm;59654;52.216;5.616;2023-11-21T02:26:15;42.88;33.40;57.57;;
71805;Laerm;59654;52.216;5.616;2023-11-21T02:26:48;42.31;33.88;57.55;;
71805;Laerm;59654;52.216;5.616;2023-11-21T02:27:21;41.78;33.71;57.53;;
71805;Laerm;59654;52.216;5.616;2023-11-21T02:27:55;43.37;34.90;57.57;;
71805;Laerm;59654;52.216;5.616;2023-11-21T02:28:26;43.50;33.95;57.56;;
71805;Laerm;59654;52.216;5.616;2023-11-21T02:28:57;43.67;34.22;59.16;;
71805;Laerm;59654;52.216;5.616;2023-11-21T02:29:29;43.00;35.48;57.55;;
71805;Laerm;59654;52.216;5.616;2023-11-21T02:30:00;43.46;35.51;59.96;;
71805;Laerm;59654;52.216;5.616;2023-11-21T02:30:32;43.86;36.05;57.58;;
71805;Laerm;59654;52.216;5.616;2023-11-21T02:31:03;41.86;34.80;57.56;;
71805;Laerm;59654;52.216;5.616;2023-11-21T02:31:35;46.25;34.54;61.79;;
71805;Laerm;59654;52.216;5.616;2023-11-21T02:32:06;42.24;34.73;57.45;;
71805;Laerm;59654;52.216;5.616;2023-11-21T02:32:37;42.78;33.89;57.37;;
71805;Laerm;59654;52.216;5.616;2023-11-21T02:33:09;42.42;33.94;61.07;;
71805;Laerm;59654;52.216;5.616;2023-11-21T02:33:39;43.32;35.55;57.18;;
71805;Laerm;59654;52.216;5.616;2023-11-21T02:34:10;42.93;33.97;59.87;;
71805;Laerm;59654;52.216;5.616;2023-11-21T02:34:43;43.53;33.27;57.43;;
71805;Laerm;59654;52.216;5.616;2023-11-21T02:35:15;44.08;34.68;57.87;;
71805;Laerm;59654;52.216;5.616;2023-11-21T02:35:46;42.61;34.28;57.29;;
71805;Laerm;59654;52.216;5.616;2023-11-21T02:36:18;42.07;34.16;57.34;;
71805;Laerm;59654;52.216;5.616;2023-11-21T02:36:50;43.08;33.96;57.42;;
71805;Laerm;59654;52.216;5.616;2023-11-21T02:37:21;43.10;33.63;57.75;;
71805;Laerm;59654;52.216;5.616;2023-11-21T02:37:53;42.34;33.63;57.39;;
71805;Laerm;59654;52.216;5.616;2023-11-21T02:38:24;43.02;34.91;57.45;;
71805;Laerm;59654;52.216;5.616;2023-11-21T02:38:55;42.47;33.81;61.28;;
71805;Laerm;59654;52.216;5.616;2023-11-21T02:39:26;41.74;33.61;57.40;;
71805;Laerm;59654;52.216;5.616;2023-11-21T02:39:57;41.89;33.45;57.43;;
71805;Laerm;59654;52.216;5.616;2023-11-21T02:40:28;42.46;33.68;58.91;;
71805;Laerm;59654;52.216;5.616;2023-11-21T02:40:58;42.91;34.29;57.56;;
71805;Laerm;59654;52.216;5.616;2023-11-21T02:41:32;43.52;33.88;57.54;;
71805;Laerm;59654;52.216;5.616;2023-11-21T02:42:03;42.36;33.98;58.51;;
71805;Laerm;59654;52.216;5.616;2023-11-21T02:42:34;42.23;33.47;57.72;;
71805;Laerm;59654;52.216;5.616;2023-11-21T02:43:05;42.85;33.83;58.04;;
71805;Laerm;59654;52.216;5.616;2023-11-21T02:43:36;45.06;37.09;57.99;;
71805;Laerm;59654;52.216;5.616;2023-11-21T02:44:10;44.95;37.26;59.79;;
71805;Laerm;59654;52.216;5.616;2023-11-21T02:44:40;43.53;35.08;60.94;;
71805;Laerm;59654;52.216;5.616;2023-11-21T02:45:15;42.74;35.35;57.53;;
71805;Laerm;59654;52.216;5.616;2023-11-21T02:45:51;44.20;37.08;57.61;;
71805;Laerm;59654;52.216;5.616;2023-11-21T02:46:22;43.85;35.13;57.54;;
71805;Laerm;59654;52.216;5.616;2023-11-21T02:46:52;41.89;33.96;57.56;;
71805;Laerm;59654;52.216;5.616;2023-11-21T02:47:23;43.35;34.30;57.50;;
71805;Laerm;59654;52.216;5.616;2023-11-21T02:47:54;42.94;34.39;57.48;;
71805;Laerm;59654;52.216;5.616;2023-11-21T02:48:27;43.12;34.34;57.49;;
71805;Laerm;59654;52.216;5.616;2023-11-21T02:48:58;41.87;33.44;57.67;;
71805;Laerm;59654;52.216;5.616;2023-11-21T02:49:29;42.91;33.81;57.53;;
71805;Laerm;59654;52.216;5.616;2023-11-21T02:49:59;43.02;33.73;57.45;;
71805;Laerm;59654;52.216;5.616;2023-11-21T02:50:31;43.65;33.90;58.21;;
71805;Laerm;59654;52.216;5.616;2023-11-21T02:51:02;42.85;33.91;57.47;;
71805;Laerm;59654;52.216;5.616;2023-11-21T02:51:33;41.52;33.93;57.66;;
71805;Laerm;59654;52.216;5.616;2023-11-21T02:52:04;43.29;34.00;60.46;;
71805;Laerm;59654;52.216;5.616;2023-11-21T02:52:35;43.21;33.57;57.47;;
71805;Laerm;59654;52.216;5.616;2023-11-21T02:53:06;42.53;34.55;58.17;;
71805;Laerm;59654;52.216;5.616;2023-11-21T02:53:37;43.65;35.56;57.55;;
71805;Laerm;59654;52.216;5.616;2023-11-21T02:54:09;43.98;35.97;57.79;;
71805;Laerm;59654;52.216;5.616;2023-11-21T02:54:40;43.86;34.36;57.49;;
71805;Laerm;59654;52.216;5.616;2023-11-21T02:55:11;42.68;34.50;57.49;;
71805;Laerm;59654;52.216;5.616;2023-11-21T02:55:42;42.42;35.49;57.51;;
71805;Laerm;59654;52.216;5.616;2023-11-21T02:56:13;43.11;35.53;57.48;;
71805;Laerm;59654;52.216;5.616;2023-11-21T02:56:44;43.40;35.00;57.64;;
71805;Laerm;59654;52.216;5.616;2023-11-21T02:57:14;42.10;36.01;57.45;;